Time;durP1;ratioP1;P1;durP2;ratioP2;P2;SDS_P1;SDS_P2;PMS_P1;PMS_P2;Temp;Humidity;BMP_temperature;BMP_pressure;BME280_temperature;BME280_humidity;BME280_pressure;Samples;Min_cycle;Max_cycle;Signal;HPM_P1;HPM_P2
2022/10/29 00:01:55;;;;;;;20.27;9.95;;;18.50;99.90;;;;;;4975508;28;20171;-70
2022/10/29 00:04:21;;;;;;;19.92;9.23;;;18.40;99.90;;;;;;4975390;28;20207;-71
2022/10/29 00:06:47;;;;;;;19.98;8.82;;;18.40;99.90;;;;;;4975381;28;20180;-70
2022/10/29 00:09:13;;;;;;;21.38;8.52;;;18.30;99.90;;;;;;4975141;28;20661;-71
2022/10/29 00:11:39;;;;;;;16.60;8.80;;;18.20;99.90;;;;;;4975249;28;20260;-70
2022/10/29 00:14:04;;;;;;;21.95;9.95;;;18.00;99.90;;;;;;4975365;28;20218;-70
2022/10/29 00:16:36;;;;;;;17.20;9.40;;;17.90;99.90;;;;;;4974925;28;20187;-70
2022/10/29 00:19:03;;;;;;;17.80;9.90;;;17.90;99.90;;;;;;4973803;28;20176;-71
2022/10/29 00:21:29;;;;;;;18.50;9.65;;;17.90;99.90;;;;;;4974953;28;20206;-71
2022/10/29 00:23:56;;;;;;;25.55;9.80;;;17.90;99.90;;;;;;4974937;28;20183;-70
2022/10/29 00:26:22;;;;;;;20.80;9.43;;;18.00;99.90;;;;;;4975117;28;20191;-69
2022/10/29 00:28:51;;;;;;;23.45;9.57;;;17.90;99.90;;;;;;4975028;28;20259;-69
2022/10/29 00:31:18;;;;;;;18.38;10.05;;;17.70;99.90;;;;;;4973450;28;20231;-70
2022/10/29 00:33:44;;;;;;;22.08;9.82;;;17.50;99.90;;;;;;4973547;28;20698;-70
2022/10/29 00:36:11;;;;;;;22.63;10.68;;;17.50;99.90;;;;;;4974865;28;20522;-69
2022/10/29 00:38:37;;;;;;;21.25;10.45;;;17.50;99.90;;;;;;4974494;28;20172;-70
2022/10/29 00:41:05;;;;;;;23.98;10.73;;;17.50;99.90;;;;;;4973521;28;20176;-70
2022/10/29 00:43:36;;;;;;;19.33;10.68;;;17.60;99.90;;;;;;4974697;28;20176;-69
2022/10/29 00:46:15;;;;;;;23.53;9.77;;;17.60;99.90;;;;;;4974576;28;20671;-69
2022/10/29 00:48:47;;;;;;;19.73;9.85;;;17.60;99.90;;;;;;4974800;28;20186;-69
2022/10/29 00:51:14;;;;;;;20.83;10.02;;;17.50;99.90;;;;;;4974733;28;20250;-69
2022/10/29 00:53:47;;;;;;;22.05;9.95;;;17.40;99.90;;;;;;4974265;28;20223;-69
2022/10/29 00:56:13;;;;;;;23.02;10.35;;;17.40;99.90;;;;;;4973298;28;20562;-69
2022/10/29 00:58:39;;;;;;;18.63;10.30;;;17.30;99.90;;;;;;4974470;28;20176;-70
2022/10/29 01:01:05;;;;;;;19.67;10.80;;;17.30;99.90;;;;;;4974584;28;20182;-69
2022/10/29 01:03:31;;;;;;;28.27;12.17;;;17.40;99.90;;;;;;4974482;28;20192;-68
2022/10/29 01:05:57;;;;;;;22.08;11.10;;;17.50;99.90;;;;;;4974461;28;20640;-69
2022/10/29 01:08:22;;;;;;;22.02;12.02;;;17.60;99.90;;;;;;4974275;28;20180;-70
2022/10/29 01:11:20;;;;;;;21.17;10.45;;;17.70;99.90;;;;;;4974470;28;20176;-69
2022/10/29 01:14:04;;;;;;;20.90;10.73;;;17.80;99.90;;;;;;4974282;28;20254;-70
2022/10/29 01:16:42;;;;;;;21.27;10.05;;;17.80;99.90;;;;;;4974410;28;20176;-70
2022/10/29 01:19:25;;;;;;;22.52;9.35;;;17.80;99.90;;;;;;4974373;28;20218;-70
2022/10/29 01:22:05;;;;;;;24.30;9.50;;;17.90;99.90;;;;;;4974147;28;20168;-70
2022/10/29 01:24:45;;;;;;;18.70;9.25;;;17.90;99.90;;;;;;4974310;28;20255;-70
2022/10/29 01:27:48;;;;;;;16.63;8.50;;;17.90;99.90;;;;;;4974337;28;20174;-70
2022/10/29 01:30:28;;;;;;;15.52;8.68;;;17.90;99.90;;;;;;4977712;28;20574;-69
2022/10/29 01:33:06;;;;;;;18.23;8.18;;;17.90;99.90;;;;;;4978242;28;20210;-69
2022/10/29 01:35:33;;;;;;;20.05;8.65;;;17.90;99.90;;;;;;4978285;28;20172;-70
2022/10/29 01:38:17;;;;;;;18.65;9.02;;;17.80;99.90;;;;;;4976863;28;20258;-69
2022/10/29 01:41:03;;;;;;;11.52;6.38;;;17.80;99.90;;;;;;4978126;28;20230;-69
2022/10/29 01:43:46;;;;;;;17.52;7.68;;;17.80;99.90;;;;;;4978121;28;20259;-69
2022/10/29 01:46:20;;;;;;;16.77;7.47;;;17.80;99.90;;;;;;4977998;28;20632;-69
2022/10/29 01:48:50;;;;;;;18.17;6.65;;;17.90;99.90;;;;;;4978071;28;20168;-69
2022/10/29 01:51:26;;;;;;;13.18;7.05;;;17.90;99.90;;;;;;4977637;28;20172;-69
2022/10/29 01:53:52;;;;;;;14.60;7.13;;;17.90;99.90;;;;;;4977994;28;20306;-70
2022/10/29 01:56:18;;;;;;;14.32;6.85;;;17.90;99.90;;;;;;4977897;28;20180;-69
2022/10/29 01:58:48;;;;;;;13.05;7.45;;;18.00;99.90;;;;;;4977840;28;20180;-70
2022/10/29 02:01:50;;;;;;;20.70;7.20;;;17.80;99.90;;;;;;4977621;28;20182;-69
2022/10/29 02:04:40;;;;;;;28.60;9.38;;;17.70;99.90;;;;;;4978032;28;20182;-69
2022/10/29 02:07:29;;;;;;;26.52;12.40;;;17.50;99.90;;;;;;4977565;28;20168;-69
2022/10/29 02:10:25;;;;;;;26.42;12.43;;;17.40;99.90;;;;;;4977668;28;20183;-70
2022/10/29 02:12:52;;;;;;;20.90;10.45;;;17.20;99.90;;;;;;4971769;28;20226;-70
2022/10/29 02:15:38;;;;;;;23.13;12.45;;;17.20;99.90;;;;;;4977557;28;20176;-69
2022/10/29 02:18:06;;;;;;;19.40;10.45;;;17.10;99.90;;;;;;4977399;28;20180;-68
2022/10/29 02:20:32;;;;;;;19.02;9.80;;;17.20;99.90;;;;;;4977038;28;20238;-69
2022/10/29 02:22:58;;;;;;;20.97;11.07;;;17.20;99.90;;;;;;4977394;28;20636;-70
2022/10/29 02:25:24;;;;;;;18.63;9.80;;;17.20;99.90;;;;;;4977341;28;20272;-69
2022/10/29 02:27:50;;;;;;;24.33;10.33;;;17.20;99.90;;;;;;4977326;28;20664;-70
2022/10/29 02:30:16;;;;;;;17.77;10.00;;;17.10;99.90;;;;;;4976892;28;20703;-69
2022/10/29 02:32:42;;;;;;;18.23;9.47;;;17.20;99.90;;;;;;4977354;28;20219;-70
2022/10/29 02:35:08;;;;;;;26.47;10.57;;;17.20;99.90;;;;;;4976733;28;20187;-69
2022/10/29 02:37:34;;;;;;;25.43;10.07;;;17.20;99.90;;;;;;4977105;28;20175;-69
2022/10/29 02:39:59;;;;;;;23.70;10.37;;;17.20;99.90;;;;;;4977059;28;20231;-69
2022/10/29 02:42:25;;;;;;;20.97;9.87;;;17.20;99.90;;;;;;4976987;28;20198;-70
2022/10/29 02:44:51;;;;;;;27.15;10.98;;;17.30;99.90;;;;;;4976913;28;20183;-69
2022/10/29 02:47:17;;;;;;;17.80;10.15;;;17.40;99.90;;;;;;4976983;28;20704;-70
2022/10/29 02:49:42;;;;;;;18.87;10.07;;;17.40;99.90;;;;;;4976543;28;20184;-69
2022/10/29 02:52:08;;;;;;;16.27;10.15;;;17.50;99.90;;;;;;4976625;28;20224;-70
2022/10/29 02:54:33;;;;;;;18.20;10.77;;;17.60;99.90;;;;;;4976545;28;20215;-69
2022/10/29 02:56:59;;;;;;;18.73;10.48;;;17.60;99.90;;;;;;4976922;28;20176;-69
2022/10/29 02:59:25;;;;;;;18.10;10.27;;;17.60;99.90;;;;;;4976778;28;20180;-69
2022/10/29 03:01:50;;;;;;;22.95;10.93;;;17.40;99.90;;;;;;4976549;28;20531;-69
2022/10/29 03:04:16;;;;;;;22.77;10.80;;;17.50;99.90;;;;;;4976304;28;20194;-69
2022/10/29 03:06:42;;;;;;;23.98;11.20;;;17.50;99.90;;;;;;4976492;28;20524;-70
2022/10/29 03:09:07;;;;;;;22.45;10.85;;;17.60;99.90;;;;;;4976566;28;20262;-69
2022/10/29 03:11:33;;;;;;;21.48;9.55;;;17.60;99.90;;;;;;4976461;28;20183;-70
2022/10/29 03:13:59;;;;;;;18.10;10.45;;;17.60;99.90;;;;;;4976347;28;20215;-70
2022/10/29 03:16:24;;;;;;;21.98;10.30;;;17.60;99.90;;;;;;4976481;28;20511;-69
2022/10/29 03:18:50;;;;;;;20.60;9.95;;;17.50;99.90;;;;;;4975826;28;20168;-69
2022/10/29 03:21:15;;;;;;;26.75;10.30;;;17.40;99.90;;;;;;4976188;28;20195;-69
2022/10/29 03:23:41;;;;;;;20.65;9.55;;;17.40;99.90;;;;;;4976151;28;20184;-70
2022/10/29 03:26:08;;;;;;;17.08;9.77;;;17.20;99.90;;;;;;4976201;28;20175;-70
2022/10/29 03:28:33;;;;;;;18.90;10.68;;;17.00;99.90;;;;;;4976170;28;20183;-70
2022/10/29 03:30:59;;;;;;;16.45;10.15;;;16.90;99.90;;;;;;4975848;28;20312;-70
2022/10/29 03:33:25;;;;;;;21.40;10.83;;;16.90;99.90;;;;;;4975585;28;20747;-69
2022/10/29 03:36:02;;;;;;;19.67;11.57;;;16.90;99.90;;;;;;4976001;28;20172;-70
2022/10/29 03:38:28;;;;;;;20.10;10.18;;;17.00;99.90;;;;;;4975741;28;20167;-69
2022/10/29 03:40:54;;;;;;;23.50;10.00;;;16.90;99.90;;;;;;4975790;28;20259;-70
2022/10/29 03:43:20;;;;;;;22.33;9.53;;;16.80;99.90;;;;;;4975509;28;20215;-69
2022/10/29 03:45:50;;;;;;;19.37;9.50;;;16.80;99.90;;;;;;4975729;28;20686;-69
2022/10/29 03:48:16;;;;;;;21.70;10.40;;;16.80;99.90;;;;;;4975273;28;20173;-70
2022/10/29 03:50:41;;;;;;;18.53;9.07;;;16.80;99.90;;;;;;4975531;28;20180;-69
2022/10/29 03:53:07;;;;;;;25.07;10.27;;;16.80;99.90;;;;;;4973822;28;20546;-70
2022/10/29 03:55:33;;;;;;;15.30;9.60;;;16.80;99.90;;;;;;4975515;28;20180;-70
2022/10/29 03:57:58;;;;;;;22.27;10.73;;;16.80;99.90;;;;;;4975115;28;20180;-70
2022/10/29 04:00:24;;;;;;;21.87;10.53;;;16.80;99.90;;;;;;4975422;28;20183;-69
2022/10/29 04:02:50;;;;;;;25.30;11.70;;;16.80;99.90;;;;;;4974945;28;20274;-69
2022/10/29 04:05:15;;;;;;;20.90;10.97;;;16.80;99.90;;;;;;4975096;28;20276;-69
2022/10/29 04:07:41;;;;;;;27.13;13.43;;;16.90;99.90;;;;;;4975205;28;20536;-69
2022/10/29 04:10:07;;;;;;;21.30;11.40;;;17.00;99.90;;;;;;4975191;28;20234;-69
2022/10/29 04:12:32;;;;;;;20.33;9.97;;;17.10;99.90;;;;;;4975185;28;20591;-70
2022/10/29 04:14:58;;;;;;;17.60;10.20;;;17.20;99.90;;;;;;4975262;28;20660;-70
2022/10/29 04:17:23;;;;;;;22.30;9.70;;;17.30;99.90;;;;;;4974903;28;20648;-70
2022/10/29 04:19:49;;;;;;;24.98;10.57;;;17.40;99.90;;;;;;4974786;28;20227;-70
2022/10/29 04:22:14;;;;;;;19.43;9.53;;;17.40;99.90;;;;;;4974952;28;20176;-70
2022/10/29 04:24:40;;;;;;;17.30;8.50;;;17.50;99.90;;;;;;4973527;28;20666;-70
2022/10/29 04:27:06;;;;;;;17.53;8.73;;;17.40;99.90;;;;;;4975244;28;20270;-70
2022/10/29 04:29:31;;;;;;;17.10;8.57;;;17.50;99.90;;;;;;4974693;28;20235;-70
2022/10/29 04:31:57;;;;;;;14.47;8.33;;;17.50;99.90;;;;;;4973476;28;20175;-70
2022/10/29 04:34:22;;;;;;;17.50;8.65;;;17.50;99.90;;;;;;4974659;28;20272;-70
2022/10/29 04:36:51;;;;;;;20.60;8.83;;;17.50;99.90;;;;;;4974699;28;20632;-69
2022/10/29 04:39:16;;;;;;;17.10;9.02;;;17.50;99.90;;;;;;4974533;28;20223;-70
2022/10/29 04:41:42;;;;;;;17.30;8.88;;;17.50;99.90;;;;;;4974437;28;20215;-70
2022/10/29 04:44:07;;;;;;;17.87;8.93;;;17.50;99.90;;;;;;4974648;28;20187;-69
2022/10/29 04:46:33;;;;;;;18.43;8.67;;;17.30;99.90;;;;;;4974367;28;20176;-70
2022/10/29 04:48:58;;;;;;;13.60;8.27;;;17.30;99.90;;;;;;4974296;28;20187;-70
2022/10/29 04:51:25;;;;;;;13.53;8.47;;;17.30;99.90;;;;;;4974299;28;20179;-69
2022/10/29 04:53:51;;;;;;;22.00;8.30;;;17.40;99.90;;;;;;4974178;28;20199;-69
2022/10/29 04:56:17;;;;;;;14.85;8.60;;;17.40;99.90;;;;;;4974140;28;20176;-70
2022/10/29 04:58:44;;;;;;;14.43;8.23;;;17.40;99.90;;;;;;4973883;28;20255;-70
2022/10/29 05:01:09;;;;;;;14.17;8.77;;;17.40;99.90;;;;;;4974677;28;20266;-69
2022/10/29 05:03:35;;;;;;;16.60;8.20;;;17.40;99.90;;;;;;4973605;28;20663;-69
2022/10/29 05:06:05;;;;;;;22.10;8.40;;;17.40;99.90;;;;;;4973195;28;20172;-69
2022/10/29 05:08:30;;;;;;;17.25;8.48;;;17.50;99.90;;;;;;4974198;28;20195;-70
2022/10/29 05:10:56;;;;;;;23.40;9.17;;;17.50;99.90;;;;;;4974170;28;20627;-69
2022/10/29 05:13:21;;;;;;;17.10;8.73;;;17.50;99.90;;;;;;4973774;28;20239;-70
2022/10/29 05:15:51;;;;;;;12.18;8.10;;;17.60;99.90;;;;;;4974343;28;20172;-69
2022/10/29 05:18:16;;;;;;;15.93;8.23;;;17.50;99.90;;;;;;4974320;28;20323;-69
2022/10/29 05:20:42;;;;;;;21.38;8.45;;;17.50;99.90;;;;;;4974070;28;20684;-69
2022/10/29 05:23:10;;;;;;;15.48;7.63;;;17.50;99.90;;;;;;4974171;28;20183;-69
2022/10/29 05:25:37;;;;;;;13.55;8.07;;;17.50;99.90;;;;;;4974051;28;20168;-69
2022/10/29 05:28:05;;;;;;;17.33;8.37;;;17.50;99.90;;;;;;4972293;28;20262;-69
2022/10/29 05:30:31;;;;;;;14.83;8.70;;;17.50;99.90;;;;;;4974168;28;20727;-70
2022/10/29 05:32:57;;;;;;;18.73;8.70;;;17.40;99.90;;;;;;4974033;28;20208;-69
2022/10/29 05:35:23;;;;;;;18.20;8.57;;;17.40;99.90;;;;;;4974081;28;20179;-69
2022/10/29 05:37:53;;;;;;;20.20;8.13;;;17.30;99.90;;;;;;4972706;28;20582;-69
2022/10/29 05:40:19;;;;;;;14.83;7.93;;;17.20;99.90;;;;;;4973660;28;20266;-69
2022/10/29 05:42:45;;;;;;;16.57;9.13;;;17.20;99.90;;;;;;4973212;28;20367;-69
2022/10/29 05:45:11;;;;;;;16.27;7.93;;;17.20;99.90;;;;;;4974043;28;20176;-69
2022/10/29 05:47:36;;;;;;;13.30;8.37;;;17.20;99.90;;;;;;4974083;28;20655;-70
2022/10/29 05:50:02;;;;;;;25.23;8.93;;;17.20;99.90;;;;;;4973938;28;20648;-69
2022/10/29 05:52:28;;;;;;;27.40;9.43;;;17.20;99.90;;;;;;4973298;28;20687;-69
2022/10/29 05:54:53;;;;;;;14.77;8.37;;;17.20;99.90;;;;;;4973639;28;20223;-70
2022/10/29 05:57:19;;;;;;;17.23;8.27;;;17.30;99.90;;;;;;4973146;28;20258;-69
2022/10/29 05:59:45;;;;;;;17.53;8.20;;;17.20;99.90;;;;;;4973575;28;20176;-69
2022/10/29 06:02:11;;;;;;;13.50;8.53;;;17.20;99.90;;;;;;4973913;28;20527;-69
2022/10/29 06:04:37;;;;;;;15.83;8.50;;;17.20;99.90;;;;;;4973732;28;20255;-70
2022/10/29 06:07:02;;;;;;;14.27;8.60;;;17.10;99.90;;;;;;4973700;28;20180;-70
2022/10/29 06:09:28;;;;;;;14.93;8.60;;;17.10;99.90;;;;;;4973741;28;20172;-70
2022/10/29 06:11:54;;;;;;;15.33;8.40;;;17.10;99.90;;;;;;4972992;28;20211;-70
2022/10/29 06:14:19;;;;;;;15.53;8.47;;;17.10;99.90;;;;;;4973931;28;20207;-69
2022/10/29 06:16:45;;;;;;;17.40;9.00;;;17.10;99.90;;;;;;4975795;28;20223;-70
2022/10/29 06:19:11;;;;;;;19.27;9.03;;;17.20;99.90;;;;;;4977130;28;20183;-69
2022/10/29 06:21:36;;;;;;;15.50;8.97;;;17.20;99.90;;;;;;4977246;28;20218;-70
2022/10/29 06:24:02;;;;;;;16.03;8.93;;;17.20;99.90;;;;;;4977061;28;20603;-69
2022/10/29 06:26:28;;;;;;;14.43;8.60;;;17.20;99.90;;;;;;4975504;28;20176;-69
2022/10/29 06:28:53;;;;;;;14.77;9.23;;;17.20;99.90;;;;;;4975176;28;20262;-69
2022/10/29 06:31:19;;;;;;;16.33;8.77;;;17.20;99.90;;;;;;4976690;28;20224;-69
2022/10/29 06:33:44;;;;;;;13.57;8.95;;;17.20;99.90;;;;;;4976902;28;20230;-69
2022/10/29 06:36:10;;;;;;;16.73;9.03;;;17.10;99.90;;;;;;4976801;28;20176;-71
2022/10/29 06:38:35;;;;;;;15.93;8.20;;;17.10;99.90;;;;;;4976013;28;20186;-70
2022/10/29 06:41:01;;;;;;;18.63;9.33;;;17.10;99.90;;;;;;4976066;28;20168;-70
2022/10/29 06:43:27;;;;;;;12.97;8.13;;;17.10;99.90;;;;;;4976317;28;20230;-70
2022/10/29 06:45:52;;;;;;;15.33;8.37;;;17.20;99.90;;;;;;4975070;28;20172;-70
2022/10/29 06:48:18;;;;;;;16.63;8.63;;;17.30;99.90;;;;;;4976854;28;20183;-69
2022/10/29 06:50:43;;;;;;;12.73;8.10;;;17.30;99.90;;;;;;4976456;28;20916;-70
2022/10/29 06:53:12;;;;;;;12.53;7.60;;;17.40;99.90;;;;;;4976482;28;20270;-69
2022/10/29 06:55:38;;;;;;;13.90;8.07;;;17.40;99.90;;;;;;4975687;28;20283;-71
2022/10/29 06:58:15;;;;;;;16.37;8.60;;;17.40;99.90;;;;;;4976072;28;20176;-71
2022/10/29 07:00:42;;;;;;;16.85;8.07;;;17.50;99.90;;;;;;4975192;28;20180;-70
2022/10/29 07:03:15;;;;;;;13.60;8.30;;;17.50;99.90;;;;;;4976471;28;20318;-70
2022/10/29 07:05:41;;;;;;;15.38;8.05;;;17.60;99.90;;;;;;4976393;28;20176;-69
2022/10/29 07:08:06;;;;;;;14.30;7.40;;;17.60;99.90;;;;;;4976087;28;20305;-70
2022/10/29 07:10:33;;;;;;;15.35;7.93;;;17.60;99.90;;;;;;4976003;28;20187;-70
2022/10/29 07:12:59;;;;;;;11.48;7.10;;;17.80;99.90;;;;;;4976116;28;20212;-70
2022/10/29 07:15:25;;;;;;;16.38;7.72;;;17.90;99.90;;;;;;4976021;28;20306;-70
2022/10/29 07:17:54;;;;;;;14.13;8.15;;;17.90;99.90;;;;;;4975462;28;20263;-70
2022/10/29 07:20:20;;;;;;;13.80;7.15;;;18.00;99.90;;;;;;4975923;28;20683;-70
2022/10/29 07:22:46;;;;;;;10.25;7.13;;;18.00;99.90;;;;;;4975674;28;20172;-69
2022/10/29 07:25:12;;;;;;;18.25;7.75;;;18.00;99.90;;;;;;4975342;28;20183;-70
2022/10/29 07:27:37;;;;;;;15.63;7.55;;;18.20;99.90;;;;;;4974934;28;20583;-70
2022/10/29 07:30:03;;;;;;;13.40;7.70;;;18.40;99.90;;;;;;4975135;28;20266;-70
2022/10/29 07:32:29;;;;;;;13.57;7.35;;;18.50;99.90;;;;;;4975393;28;20648;-70
2022/10/29 07:34:54;;;;;;;13.63;7.50;;;18.70;99.90;;;;;;4975699;28;20176;-70
2022/10/29 07:37:20;;;;;;;10.95;7.18;;;18.80;99.90;;;;;;4975659;28;20180;-69
2022/10/29 07:39:46;;;;;;;12.07;7.50;;;18.80;99.90;;;;;;4975060;28;20199;-70
2022/10/29 07:42:11;;;;;;;14.60;7.50;;;18.70;99.90;;;;;;4975227;28;20518;-70
2022/10/29 07:44:37;;;;;;;16.13;7.13;;;18.70;99.90;;;;;;4975445;28;20176;-70
2022/10/29 07:47:02;;;;;;;9.20;6.68;;;18.70;99.90;;;;;;4975336;28;20636;-70
2022/10/29 07:49:28;;;;;;;17.38;7.43;;;18.70;99.90;;;;;;4975645;28;20179;-70
2022/10/29 07:51:53;;;;;;;16.55;7.30;;;18.60;99.90;;;;;;4975526;28;20715;-69
2022/10/29 07:54:19;;;;;;;11.75;7.15;;;18.60;99.90;;;;;;4974873;28;20258;-70
2022/10/29 07:56:44;;;;;;;12.98;6.80;;;18.70;99.90;;;;;;4975018;28;20263;-71
2022/10/29 07:59:13;;;;;;;14.52;6.35;;;18.80;99.90;;;;;;4975147;28;20655;-70
2022/10/29 08:01:39;;;;;;;13.57;6.90;;;18.80;99.90;;;;;;4974592;28;20164;-71
2022/10/29 08:04:04;;;;;;;13.70;6.63;;;19.10;99.90;;;;;;4975088;28;20651;-70
2022/10/29 08:06:30;;;;;;;16.58;6.22;;;19.30;99.90;;;;;;4975105;28;20172;-71
2022/10/29 08:08:56;;;;;;;14.13;6.47;;;19.30;99.90;;;;;;4974515;28;20538;-70
2022/10/29 08:11:22;;;;;;;15.50;6.28;;;19.40;99.90;;;;;;4974885;28;20178;-71
2022/10/29 08:13:48;;;;;;;12.27;5.93;;;19.30;99.90;;;;;;4974850;28;20203;-70
2022/10/29 08:16:13;;;;;;;11.98;6.25;;;19.30;99.90;;;;;;4974519;28;20179;-70
2022/10/29 08:18:39;;;;;;;13.95;6.35;;;19.50;99.90;;;;;;4974093;28;20176;-70
2022/10/29 08:21:05;;;;;;;15.13;6.47;;;19.90;99.90;;;;;;4975001;28;20251;-71
2022/10/29 08:23:30;;;;;;;17.65;6.45;;;20.60;99.90;;;;;;4974502;28;20657;-71
2022/10/29 08:25:57;;;;;;;16.65;6.35;;;21.40;99.90;;;;;;4974724;28;20531;-71
2022/10/29 08:28:22;;;;;;;12.68;5.72;;;22.30;99.90;;;;;;4974882;28;20204;-71
2022/10/29 08:30:49;;;;;;;14.82;7.35;;;23.10;99.90;;;;;;4973847;28;20274;-73
2022/10/29 08:33:15;;;;;;;17.30;6.18;;;24.30;99.90;;;;;;4974328;28;20294;-72
2022/10/29 08:35:40;;;;;;;13.52;5.22;;;25.40;99.90;;;;;;4974701;28;20250;-72
2022/10/29 08:38:06;;;;;;;9.40;5.22;;;25.80;99.50;;;;;;4974093;28;20510;-71
2022/10/29 08:40:57;;;;;;;8.60;5.25;;;26.50;96.30;;;;;;4973331;28;20179;-71
2022/10/29 08:43:57;;;;;;;12.27;5.55;;;26.80;99.90;;;;;;4972808;28;20180;-70
2022/10/29 08:46:43;;;;;;;14.13;5.50;;;27.30;84.90;;;;;;4974353;28;20179;-70
2022/10/29 08:49:32;;;;;;;9.57;5.00;;;27.50;1.00;;;;;;4974408;28;20530;-72
2022/10/29 08:52:19;;;;;;;16.25;5.25;;;27.20;1.00;;;;;;4973881;28;20199;-72
2022/10/29 08:54:52;;;;;;;12.85;5.22;;;26.70;1.00;;;;;;4973913;28;20219;-71
2022/10/29 08:57:22;;;;;;;11.88;5.03;;;26.50;1.00;;;;;;4974241;28;20171;-72
2022/10/29 09:00:01;;;;;;;11.15;4.70;;;26.20;1.00;;;;;;4973887;28;20722;-73
2022/10/29 09:02:28;;;;;;;12.85;5.65;;;25.80;99.90;;;;;;4974565;28;20278;-71
2022/10/29 09:04:54;;;;;;;14.95;7.60;;;25.50;99.90;;;;;;4974072;28;20387;-71
2022/10/29 09:07:38;;;;;;;9.50;5.03;;;25.10;1.00;;;;;;4972704;28;20313;-71
2022/10/29 09:10:40;;;;;;;10.00;4.75;;;24.90;1.00;;;;;;4973890;28;20251;-71
2022/10/29 09:13:21;;;;;;;11.20;5.22;;;24.60;99.90;;;;;;4972831;28;20211;-70
2022/10/29 09:16:05;;;;;;;12.68;5.07;;;24.60;1.00;;;;;;4973789;28;20171;-71
2022/10/29 09:18:36;;;;;;;12.45;5.03;;;24.40;96.20;;;;;;4973865;28;20183;-71
2022/10/29 09:21:21;;;;;;;17.25;5.25;;;24.30;98.00;;;;;;4972860;28;20203;-71
2022/10/29 09:23:49;;;;;;;14.25;5.07;;;24.50;98.20;;;;;;4973959;28;20176;-71
2022/10/29 09:26:30;;;;;;;11.57;5.35;;;24.60;97.40;;;;;;4974148;28;20184;-70
2022/10/29 09:29:34;;;;;;;11.20;4.82;;;24.80;97.40;;;;;;4973939;28;20180;-71
2022/10/29 09:32:04;;;;;;;12.20;4.57;;;25.00;96.20;;;;;;4933493;29;20261;-70
2022/10/29 09:34:34;;;;;;;16.65;5.80;;;25.10;1.00;;;;;;4966377;28;20310;-70
2022/10/29 09:37:01;;;;;;;11.73;5.43;;;25.50;99.90;;;;;;4973956;28;20172;-70
2022/10/29 09:39:40;;;;;;;16.73;5.13;;;25.70;99.90;;;;;;4973558;28;20165;-71
2022/10/29 09:42:20;;;;;;;14.85;5.22;;;25.80;99.90;;;;;;4973550;28;20168;-70
2022/10/29 09:44:51;;;;;;;13.85;5.55;;;25.60;99.90;;;;;;4973803;28;20520;-71
2022/10/29 09:47:37;;;;;;;13.32;5.50;;;25.80;99.90;;;;;;4973678;28;20494;-71
2022/10/29 09:50:06;;;;;;;13.32;4.57;;;26.00;1.60;;;;;;4974846;28;20175;-71
2022/10/29 09:52:35;;;;;;;8.48;5.13;;;26.10;1.00;;;;;;4976938;28;20174;-72
2022/10/29 09:55:04;;;;;;;15.68;4.78;;;26.20;1.00;;;;;;4977455;28;20655;-71
2022/10/29 09:57:33;;;;;;;13.93;5.20;;;26.30;1.00;;;;;;4977388;28;20168;-71
2022/10/29 10:00:06;;;;;;;14.13;4.72;;;26.60;1.00;;;;;;4977494;28;20203;-71
2022/10/29 10:02:44;;;;;;;13.27;5.55;;;27.00;1.00;;;;;;4976985;28;20176;-71
2022/10/29 10:05:14;;;;;;;14.40;6.80;;;27.60;1.00;;;;;;4976799;28;20186;-71
2022/10/29 10:07:40;;;;;;;15.35;5.97;;;28.10;1.00;;;;;;4977186;28;20176;-71
2022/10/29 10:10:20;;;;;;;14.48;5.60;;;29.10;99.90;;;;;;4976994;28;20323;-71
2022/10/29 10:12:48;;;;;;;13.00;5.10;;;29.50;99.90;;;;;;4976969;28;20210;-73
2022/10/29 10:15:19;;;;;;;12.35;4.68;;;29.40;99.90;;;;;;4977281;28;20266;-71
2022/10/29 10:18:04;;;;;;;9.68;5.10;;;29.60;99.90;;;;;;4975653;28;20266;-71
2022/10/29 10:20:45;;;;;;;16.27;5.10;;;29.80;99.90;;;;;;4977011;28;20676;-73
2022/10/29 10:23:29;;;;;;;15.07;5.65;;;30.20;99.90;;;;;;4976773;28;20643;-74
2022/10/29 10:25:57;;;;;;;9.70;5.00;;;30.80;99.90;;;;;;4977305;28;20230;-72
2022/10/29 10:28:28;;;;;;;12.95;5.05;;;30.40;99.90;;;;;;4977261;28;20208;-73
2022/10/29 10:31:03;;;;;;;12.68;4.90;;;30.70;99.90;;;;;;4976709;28;20307;-73
2022/10/29 10:33:31;;;;;;;10.98;5.13;;;30.40;99.90;;;;;;4976176;28;20262;-74
2022/10/29 10:36:17;;;;;;;15.23;4.82;;;30.60;99.90;;;;;;4976849;28;20179;-73
2022/10/29 10:38:46;;;;;;;11.65;4.85;;;31.10;99.90;;;;;;4976685;28;20180;-74
2022/10/29 10:41:13;;;;;;;14.20;5.03;;;31.70;99.90;;;;;;4975480;28;20226;-74
2022/10/29 10:43:46;;;;;;;13.18;4.97;;;31.80;99.90;;;;;;4975466;28;20191;-73
2022/10/29 10:46:25;;;;;;;13.63;5.25;;;32.10;99.90;;;;;;4976746;28;20647;-74
2022/10/29 10:49:19;;;;;;;11.43;5.03;;;31.70;99.90;;;;;;4976036;28;20263;-74
2022/10/29 10:51:51;;;;;;;16.75;5.68;;;32.00;99.90;;;;;;4975199;28;20210;-74
2022/10/29 10:54:25;;;;;;;11.77;4.55;;;33.00;99.90;;;;;;4976386;28;20241;-74
2022/10/29 10:57:15;;;;;;;9.13;4.68;;;32.90;99.90;;;;;;4976109;28;20222;-74
2022/10/29 11:00:05;;;;;;;15.10;5.75;;;32.70;99.90;;;;;;4975312;28;20175;-74
2022/10/29 11:02:50;;;;;;;11.73;4.95;;;33.20;99.90;;;;;;4975600;28;20221;-73
2022/10/29 11:05:27;;;;;;;9.88;5.47;;;32.80;99.90;;;;;;4974850;28;20180;-73
2022/10/29 11:08:05;;;;;;;12.98;5.57;;;33.20;99.90;;;;;;4976519;28;20175;-72
2022/10/29 11:10:39;;;;;;;11.35;4.78;;;32.90;99.90;;;;;;4975945;28;20167;-73
2022/10/29 11:13:14;;;;;;;13.52;5.55;;;31.90;99.90;;;;;;4974262;28;20258;-72
2022/10/29 11:16:04;;;;;;;13.02;5.40;;;31.20;99.90;;;;;;4976054;28;20243;-72
2022/10/29 11:18:41;;;;;;;16.27;5.40;;;31.20;99.90;;;;;;4975781;28;20190;-73
2022/10/29 11:21:31;;;;;;;10.82;5.10;;;31.20;99.90;;;;;;4974045;28;20196;-73
2022/10/29 11:24:23;;;;;;;14.57;5.50;;;31.30;99.90;;;;;;4975944;28;20612;-73
2022/10/29 11:26:54;;;;;;;13.45;4.80;;;31.40;99.90;;;;;;4975607;28;20180;-73
2022/10/29 11:29:46;;;;;;;10.50;4.72;;;31.30;99.90;;;;;;4975259;28;20175;-74
2022/10/29 11:32:39;;;;;;;13.95;5.82;;;31.70;99.90;;;;;;4975460;28;20648;-73
2022/10/29 11:35:09;;;;;;;15.02;5.20;;;32.00;99.90;;;;;;4954110;28;20226;-73
2022/10/29 11:37:58;;;;;;;14.18;4.90;;;32.10;99.90;;;;;;4973881;28;20283;-73
2022/10/29 11:40:53;;;;;;;17.30;5.70;;;31.50;99.90;;;;;;4975027;28;20240;-74
2022/10/29 11:43:20;;;;;;;11.10;4.68;;;32.10;99.90;;;;;;4975183;28;20179;-73
2022/10/29 11:45:58;;;;;;;12.85;4.75;;;31.90;99.90;;;;;;4974862;28;20179;-72
2022/10/29 11:48:30;;;;;;;14.88;4.80;;;31.80;99.90;;;;;;4975226;28;20203;-73
2022/10/29 11:51:16;;;;;;;12.13;5.15;;;30.80;99.90;;;;;;4974988;28;20172;-72
2022/10/29 11:54:01;;;;;;;14.32;4.68;;;30.50;99.90;;;;;;4974817;28;20310;-71
2022/10/29 11:56:49;;;;;;;14.68;4.97;;;30.60;99.90;;;;;;4975317;28;20279;-72
2022/10/29 11:59:35;;;;;;;15.32;5.10;;;30.70;99.90;;;;;;4974693;28;20203;-72
2022/10/29 12:02:21;;;;;;;14.43;5.63;;;30.50;99.90;;;;;;4974964;28;20266;-72
2022/10/29 12:04:58;;;;;;;13.75;5.35;;;30.60;99.90;;;;;;4974902;28;20164;-71
2022/10/29 12:07:32;;;;;;;11.65;5.00;;;30.10;99.90;;;;;;4975231;28;20198;-73
2022/10/29 12:10:11;;;;;;;12.93;5.30;;;29.70;99.90;;;;;;4975283;28;20167;-72
2022/10/29 12:13:13;;;;;;;11.73;5.53;;;29.70;99.90;;;;;;4973710;28;20178;-71
2022/10/29 12:15:49;;;;;;;13.18;4.78;;;29.60;99.90;;;;;;4966758;28;20195;-70
2022/10/29 12:18:30;;;;;;;11.20;5.00;;;29.00;99.90;;;;;;4975057;28;20254;-71
2022/10/29 12:21:15;;;;;;;14.38;4.80;;;28.70;99.90;;;;;;4974867;28;20224;-72
2022/10/29 12:23:50;;;;;;;11.50;4.57;;;28.40;99.90;;;;;;4974312;28;20171;-72
2022/10/29 12:26:24;;;;;;;10.27;4.20;;;27.90;99.90;;;;;;4974461;28;20620;-70
2022/10/29 12:28:58;;;;;;;8.95;4.75;;;27.60;99.90;;;;;;4974822;28;20164;-72
2022/10/29 12:31:33;;;;;;;12.07;4.63;;;27.40;99.90;;;;;;4974253;28;20306;-71
2022/10/29 12:34:05;;;;;;;10.40;4.00;;;27.30;99.90;;;;;;4974022;28;20208;-71
2022/10/29 12:36:51;;;;;;;10.98;4.30;;;27.20;99.90;;;;;;4974676;28;20171;-70
2022/10/29 12:39:31;;;;;;;13.63;4.22;;;27.20;99.90;;;;;;4974804;28;20175;-70
2022/10/29 12:42:05;;;;;;;14.25;4.18;;;27.20;99.90;;;;;;4974661;28;20278;-71
2022/10/29 12:44:44;;;;;;;11.15;4.45;;;27.00;99.90;;;;;;4972908;28;20186;-71
2022/10/29 12:47:12;;;;;;;11.10;4.43;;;27.10;99.90;;;;;;4974520;28;20198;-70
2022/10/29 12:50:02;;;;;;;13.27;4.30;;;27.20;99.90;;;;;;4974220;28;20168;-71
2022/10/29 12:52:55;;;;;;;13.02;4.75;;;27.40;99.90;;;;;;4973766;28;20180;-71
2022/10/29 12:55:21;;;;;;;13.93;4.75;;;27.60;99.90;;;;;;4973777;28;20214;-71
2022/10/29 12:57:47;;;;;;;11.38;4.47;;;27.70;99.90;;;;;;4973724;28;20639;-71